createdAt,value
2017-07-16T00:01:54.454Z,12.30
2017-07-16T00:04:22.691Z,12.20
2017-07-16T00:06:50.158Z,12.20
2017-07-16T00:09:17.656Z,12.20
2017-07-16T00:11:45.242Z,12.20
2017-07-16T00:14:12.717Z,12.20
2017-07-16T00:16:40.209Z,12.20
2017-07-16T00:19:07.685Z,12.10
2017-07-16T00:21:35.920Z,11.90
2017-07-16T00:24:03.448Z,11.90
2017-07-16T00:26:30.961Z,11.90
2017-07-16T00:28:59.205Z,11.80
2017-07-16T00:31:26.699Z,11.80
2017-07-16T00:33:54.936Z,11.80
2017-07-16T00:36:23.191Z,11.80
2017-07-16T00:38:50.692Z,11.80
2017-07-16T00:41:18.171Z,11.80
2017-07-16T00:43:46.446Z,11.80
2017-07-16T00:46:14.702Z,11.80
2017-07-16T00:48:42.170Z,11.80
2017-07-16T00:51:10.409Z,11.70
2017-07-16T00:53:37.908Z,11.60
2017-07-16T00:56:06.146Z,11.60
2017-07-16T00:58:33.616Z,11.60
2017-07-16T01:01:01.342Z,11.60
2017-07-16T01:03:28.813Z,11.60
2017-07-16T01:05:56.286Z,11.70
2017-07-16T01:08:23.773Z,11.70
2017-07-16T01:10:52.017Z,11.60
2017-07-16T01:13:19.491Z,11.50
2017-07-16T01:15:47.310Z,11.50
2017-07-16T01:18:14.818Z,11.60
2017-07-16T01:20:43.058Z,11.60
2017-07-16T01:23:10.549Z,11.60
2017-07-16T01:25:38.017Z,11.60
2017-07-16T01:28:06.257Z,11.50
2017-07-16T01:30:33.748Z,11.40
2017-07-16T01:33:01.985Z,11.50
2017-07-16T01:35:29.458Z,11.40
2017-07-16T01:37:57.105Z,11.40
2017-07-16T01:40:24.577Z,11.30
2017-07-16T01:42:52.048Z,11.30
2017-07-16T01:45:19.538Z,11.20
2017-07-16T01:47:47.005Z,11.20
2017-07-16T01:50:14.475Z,11.20
2017-07-16T01:52:41.971Z,11.30
2017-07-16T01:55:09.442Z,11.30
2017-07-16T01:57:37.677Z,11.40
2017-07-16T02:00:05.184Z,11.40
2017-07-16T02:02:33.417Z,11.50
2017-07-16T02:05:00.890Z,11.50
2017-07-16T02:07:28.382Z,11.60
2017-07-16T02:09:55.856Z,11.70
2017-07-16T02:12:23.329Z,11.90
2017-07-16T02:14:50.821Z,11.90
2017-07-16T02:17:18.641Z,11.90
2017-07-16T02:19:46.118Z,11.90
2017-07-16T02:22:13.997Z,11.90
2017-07-16T02:24:41.477Z,11.90
2017-07-16T02:27:09.714Z,11.70
2017-07-16T02:29:37.209Z,11.70
2017-07-16T02:32:05.449Z,11.70
2017-07-16T02:34:32.917Z,11.70
2017-07-16T02:37:00.405Z,11.70
2017-07-16T02:39:28.637Z,11.70
2017-07-16T02:41:56.105Z,11.60
2017-07-16T02:44:23.597Z,11.60
2017-07-16T02:46:51.834Z,11.60
2017-07-16T02:49:19.298Z,11.60
2017-07-16T02:51:46.794Z,11.60
2017-07-16T02:54:14.266Z,11.60
2017-07-16T02:56:41.737Z,11.60
2017-07-16T02:59:09.362Z,11.70
2017-07-16T03:01:37.678Z,11.60
2017-07-16T03:04:05.149Z,11.60
2017-07-16T03:06:33.049Z,11.60
2017-07-16T03:09:01.285Z,11.50
2017-07-16T03:11:28.754Z,11.50
2017-07-16T03:13:56.245Z,11.50
2017-07-16T03:16:24.482Z,11.50
2017-07-16T03:18:51.949Z,11.50
2017-07-16T03:21:19.448Z,11.50
2017-07-16T03:23:46.917Z,11.50
2017-07-16T03:26:14.385Z,11.50
2017-07-16T03:28:41.878Z,11.50
2017-07-16T03:31:09.350Z,11.50
2017-07-16T03:33:36.938Z,11.60
2017-07-16T03:36:04.458Z,11.60
2017-07-16T03:38:32.032Z,11.70
2017-07-16T03:41:00.269Z,11.90
2017-07-16T03:43:27.770Z,11.90
2017-07-16T03:45:56.042Z,12.00
2017-07-16T03:48:24.319Z,12.00
2017-07-16T03:50:53.005Z,12.10
2017-07-16T03:53:21.246Z,12.10
2017-07-16T03:55:48.713Z,12.10
2017-07-16T03:58:16.294Z,12.10
2017-07-16T04:00:44.529Z,12.10
2017-07-16T04:03:12.030Z,12.10
2017-07-16T04:05:40.289Z,12.10
2017-07-16T04:08:08.546Z,12.20
2017-07-16T04:10:36.016Z,12.10
2017-07-16T04:26:07.781Z,12.20
2017-07-16T04:28:36.022Z,13.10
2017-07-16T04:31:03.493Z,13.10
2017-07-16T04:33:30.989Z,13.00
2017-07-16T04:35:58.529Z,12.90
2017-07-16T04:38:26.777Z,12.90
2017-07-16T04:40:54.270Z,12.80
2017-07-16T04:43:21.749Z,12.90
2017-07-16T04:45:49.238Z,12.90
2017-07-16T04:48:16.730Z,12.90
2017-07-16T04:50:44.970Z,12.90
2017-07-16T04:53:12.442Z,12.90
2017-07-16T04:55:39.933Z,12.90
2017-07-16T04:58:08.449Z,13.00
2017-07-16T05:00:35.920Z,13.00
2017-07-16T05:03:03.825Z,13.10
2017-07-16T05:05:32.062Z,13.30
2017-07-16T05:07:59.537Z,13.30
2017-07-16T05:10:27.038Z,13.50
2017-07-16T05:12:54.574Z,13.60
2017-07-16T05:15:22.810Z,13.90
2017-07-16T05:17:50.314Z,13.80
2017-07-16T05:20:18.561Z,14.30
2017-07-16T05:22:46.816Z,14.60
2017-07-16T05:25:14.310Z,14.60
2017-07-16T05:27:42.553Z,15.10
2017-07-16T05:30:10.026Z,15.10
2017-07-16T05:32:37.549Z,15.40
2017-07-16T05:35:05.021Z,15.60
2017-07-16T05:37:32.492Z,16.00
2017-07-16T05:40:00.389Z,16.70
2017-07-16T05:42:28.626Z,17.30
2017-07-16T05:44:56.097Z,17.30
2017-07-16T05:47:23.602Z,17.40
2017-07-16T05:49:51.137Z,17.30
2017-07-16T05:52:19.386Z,18.40
2017-07-16T05:54:46.881Z,18.40
2017-07-16T05:57:15.117Z,19.90
2017-07-16T05:59:42.586Z,19.80
2017-07-16T06:02:10.077Z,20.30
2017-07-16T06:04:38.367Z,20.20
2017-07-16T06:07:06.682Z,20.20
2017-07-16T06:09:35.369Z,20.10
2017-07-16T06:12:04.742Z,19.80
2017-07-16T06:14:33.374Z,19.60
2017-07-16T06:17:02.004Z,19.80
2017-07-16T06:19:30.352Z,19.50
2017-07-16T06:21:59.864Z,19.40
2017-07-16T06:24:28.268Z,19.40
2017-07-16T06:26:55.890Z,19.50
2017-07-16T06:29:24.461Z,20.20
2017-07-16T06:31:52.993Z,20.70
2017-07-16T06:34:20.684Z,20.70
2017-07-16T06:36:49.453Z,21.00
2017-07-16T06:39:17.722Z,21.00
2017-07-16T06:41:47.446Z,21.20
2017-07-16T06:44:15.405Z,21.10
2017-07-16T06:46:43.075Z,20.90
2017-07-16T06:49:11.170Z,21.70
2017-07-16T06:51:39.296Z,21.30
2017-07-16T06:54:08.535Z,21.30
2017-07-16T06:56:36.540Z,21.30
2017-07-16T06:59:05.422Z,21.30
2017-07-16T07:01:34.201Z,21.10
2017-07-16T07:04:03.141Z,20.90
2017-07-16T07:06:30.916Z,20.90
2017-07-16T07:08:58.587Z,20.70
2017-07-16T07:11:27.095Z,21.00
2017-07-16T07:13:54.801Z,21.00
2017-07-16T07:16:23.977Z,20.90
2017-07-16T07:18:52.764Z,20.80
2017-07-16T07:21:21.017Z,21.20
2017-07-16T07:23:50.051Z,21.60
2017-07-16T07:26:18.202Z,21.60
2017-07-16T07:28:46.928Z,21.00
2017-07-16T07:31:14.872Z,21.00
2017-07-16T07:33:43.956Z,20.50
2017-07-16T07:36:12.793Z,20.30
2017-07-16T07:38:40.744Z,20.30
2017-07-16T07:41:09.903Z,20.40
2017-07-16T07:43:38.487Z,20.50
2017-07-16T07:46:07.479Z,20.60
2017-07-16T07:48:35.425Z,20.60
2017-07-16T07:51:03.219Z,20.90
2017-07-16T07:53:31.935Z,21.80
2017-07-16T07:56:00.939Z,21.50
2017-07-16T07:58:30.044Z,21.60
2017-07-16T08:00:57.959Z,21.60
2017-07-16T08:03:26.600Z,21.80
2017-07-16T08:05:55.601Z,21.90
2017-07-16T08:08:23.364Z,21.90
2017-07-16T08:10:51.669Z,21.90
2017-07-16T08:13:20.121Z,22.40
2017-07-16T08:15:48.176Z,22.40
2017-07-16T08:18:15.877Z,22.40
2017-07-16T08:20:45.118Z,22.70
2017-07-16T08:23:13.107Z,22.60
2017-07-16T08:25:41.605Z,22.30
2017-07-16T08:28:10.097Z,22.70
2017-07-16T08:30:38.541Z,23.10
2017-07-16T08:33:06.927Z,23.30
2017-07-16T08:35:34.892Z,23.20
2017-07-16T08:38:03.809Z,24.40
2017-07-16T08:40:31.528Z,24.30
2017-07-16T08:43:00.187Z,24.00
2017-07-16T08:45:28.236Z,24.10
2017-07-16T08:47:57.057Z,23.70
2017-07-16T08:50:24.771Z,23.70
2017-07-16T08:52:53.751Z,23.20
2017-07-16T08:55:21.976Z,23.20
2017-07-16T08:57:49.917Z,23.60
2017-07-16T09:00:18.308Z,24.20
2017-07-16T09:02:46.546Z,24.50
2017-07-16T09:05:14.021Z,24.50
2017-07-16T09:07:42.301Z,24.60
2017-07-16T09:10:09.774Z,24.60
2017-07-16T09:12:38.302Z,24.80
2017-07-16T09:15:05.798Z,24.80
2017-07-16T09:17:33.269Z,24.60
2017-07-16T09:20:01.645Z,25.10
2017-07-16T09:22:29.904Z,24.10
2017-07-16T09:24:57.381Z,24.10
2017-07-16T09:27:25.617Z,24.30
2017-07-16T09:29:53.113Z,24.30
2017-07-16T09:32:21.350Z,23.80
2017-07-16T09:34:48.823Z,23.80
2017-07-16T09:37:16.317Z,23.70
2017-07-16T09:39:43.790Z,23.90
2017-07-16T09:42:11.266Z,24.50
2017-07-16T09:44:38.770Z,25.20
2017-07-16T09:47:07.010Z,25.30
2017-07-16T09:49:34.493Z,25.20
2017-07-16T09:52:01.985Z,25.40
2017-07-16T09:54:29.458Z,25.90
2017-07-16T09:56:56.937Z,26.40
2017-07-16T09:59:24.438Z,27.00
2017-07-16T10:01:52.674Z,27.90
2017-07-16T10:04:20.145Z,27.90
2017-07-16T10:06:47.637Z,28.50
2017-07-16T10:09:15.181Z,28.50
2017-07-16T10:11:43.423Z,27.20
2017-07-16T10:14:10.923Z,27.20
2017-07-16T10:16:39.161Z,27.70
2017-07-16T10:19:06.635Z,27.70
2017-07-16T10:21:34.896Z,27.30
2017-07-16T10:24:02.364Z,27.30
2017-07-16T10:26:29.838Z,27.70
2017-07-16T10:28:58.099Z,27.90
2017-07-16T10:31:25.574Z,27.90
2017-07-16T10:33:53.814Z,28.10
2017-07-16T10:36:21.649Z,28.10
2017-07-16T10:38:50.041Z,28.90
2017-07-16T10:41:17.794Z,29.60
2017-07-16T10:43:45.285Z,30.30
2017-07-16T10:46:12.764Z,30.80
2017-07-16T10:48:41.000Z,31.20
2017-07-16T10:51:08.498Z,31.20
2017-07-16T10:53:36.737Z,29.50
2017-07-16T10:56:04.207Z,29.50
2017-07-16T10:58:31.728Z,28.90
2017-07-16T11:00:59.203Z,29.30
2017-07-16T11:03:26.679Z,30.00
2017-07-16T11:05:54.570Z,30.40
2017-07-16T11:08:22.813Z,30.30
2017-07-16T11:10:50.293Z,30.30
2017-07-16T11:13:19.034Z,31.40
2017-07-16T11:15:46.509Z,31.30
2017-07-16T11:18:13.977Z,31.80
2017-07-16T11:20:41.469Z,31.60
2017-07-16T11:23:09.922Z,32.10
2017-07-16T11:25:37.396Z,32.10
2017-07-16T11:28:04.905Z,31.10
2017-07-16T11:30:32.377Z,30.80
2017-07-16T11:32:59.849Z,31.50
2017-07-16T11:35:27.426Z,32.50
2017-07-16T11:37:54.897Z,32.60
2017-07-16T11:40:22.369Z,32.90
2017-07-16T11:42:49.865Z,33.50
2017-07-16T11:45:17.342Z,33.40
2017-07-16T11:47:44.813Z,32.40
2017-07-16T11:50:13.073Z,32.20
2017-07-16T11:52:40.548Z,32.20
2017-07-16T11:55:08.101Z,32.10
2017-07-16T11:57:35.604Z,31.80
2017-07-16T12:00:03.073Z,31.10
2017-07-16T12:02:30.558Z,30.60
2017-07-16T12:04:58.134Z,28.90
2017-07-16T12:07:26.377Z,28.90
2017-07-16T12:09:53.851Z,28.90
2017-07-16T12:12:21.674Z,29.60
2017-07-16T12:14:49.282Z,29.90
2017-07-16T12:17:16.761Z,29.90
2017-07-16T12:19:44.262Z,29.50
2017-07-16T12:22:11.741Z,29.30
2017-07-16T12:24:39.223Z,29.50
2017-07-16T12:27:07.493Z,30.00
2017-07-16T12:29:35.737Z,29.50
2017-07-16T12:32:03.220Z,29.50
2017-07-16T12:34:30.713Z,28.70
2017-07-16T12:36:58.197Z,28.30
2017-07-16T12:39:25.729Z,28.10
2017-07-16T12:41:53.221Z,28.40
2017-07-16T12:44:20.694Z,28.10
2017-07-16T12:46:48.170Z,28.20
2017-07-16T12:49:15.682Z,28.50
2017-07-16T12:51:43.442Z,28.90
2017-07-16T12:54:10.918Z,29.50
2017-07-16T12:56:38.425Z,29.40
2017-07-16T12:59:05.898Z,29.40
2017-07-16T13:01:33.369Z,29.90
2017-07-16T13:04:00.865Z,29.90
2017-07-16T13:06:28.338Z,29.50
2017-07-16T13:08:56.581Z,29.00
2017-07-16T13:11:24.074Z,29.00
2017-07-16T13:13:52.313Z,26.80
2017-07-16T13:16:19.782Z,26.80
2017-07-16T13:18:47.282Z,26.40
2017-07-16T13:21:14.784Z,26.60
2017-07-16T13:23:42.256Z,27.40
2017-07-16T13:26:09.766Z,27.70
2017-07-16T13:28:37.243Z,28.20
2017-07-16T13:31:04.789Z,28.10
2017-07-16T13:33:32.290Z,28.10
2017-07-16T13:35:59.801Z,28.20
2017-07-16T13:38:27.302Z,27.90
2017-07-16T13:40:54.793Z,28.00
2017-07-16T13:43:22.266Z,28.00
2017-07-16T13:45:49.741Z,28.10
2017-07-16T13:48:17.237Z,28.00
2017-07-16T13:50:44.711Z,28.00
2017-07-16T13:53:12.951Z,26.60
2017-07-16T13:55:40.442Z,26.60
2017-07-16T13:58:08.681Z,26.00
2017-07-16T14:00:36.153Z,26.00
2017-07-16T14:03:03.648Z,26.20
2017-07-16T14:05:31.117Z,26.20
2017-07-16T14:07:58.589Z,26.20
2017-07-16T14:10:26.081Z,25.90
2017-07-16T14:12:53.556Z,26.20
2017-07-16T14:15:21.874Z,27.00
2017-07-16T14:17:49.645Z,26.90
2017-07-16T14:20:17.117Z,27.10
2017-07-16T14:22:44.592Z,27.00
2017-07-16T14:25:12.103Z,26.60
2017-07-16T14:27:39.572Z,26.40
2017-07-16T14:30:07.050Z,26.30
2017-07-16T14:32:34.749Z,26.20
2017-07-16T14:35:02.990Z,26.40
2017-07-16T14:37:30.473Z,26.40
2017-07-16T14:39:58.729Z,26.40
2017-07-16T14:42:26.208Z,26.40
2017-07-16T14:44:54.481Z,26.90
2017-07-16T14:47:22.743Z,27.10
2017-07-16T14:49:50.217Z,27.10
2017-07-16T14:52:18.457Z,27.50
2017-07-16T14:54:45.969Z,27.50
2017-07-16T14:57:13.509Z,27.50
2017-07-16T14:59:41.754Z,27.40
2017-07-16T15:02:09.249Z,27.40
2017-07-16T15:04:37.485Z,27.10
2017-07-16T15:07:04.958Z,27.10
2017-07-16T15:09:32.450Z,27.10
2017-07-16T15:11:59.924Z,26.90
2017-07-16T15:14:27.393Z,27.00
2017-07-16T15:16:54.886Z,26.90
2017-07-16T15:19:22.358Z,26.90
2017-07-16T15:21:50.596Z,26.90
2017-07-16T15:24:18.089Z,26.90
2017-07-16T15:26:46.325Z,26.50
2017-07-16T15:29:13.794Z,26.40
2017-07-16T15:31:41.305Z,26.50
2017-07-16T15:34:08.776Z,26.50
2017-07-16T15:36:36.249Z,26.40
2017-07-16T15:39:03.756Z,26.40
2017-07-16T15:41:31.998Z,26.20
2017-07-16T15:43:59.469Z,26.20
2017-07-16T15:46:26.966Z,26.30
2017-07-16T15:48:54.508Z,26.40
2017-07-16T15:51:21.988Z,26.50
2017-07-16T15:53:49.487Z,26.60
2017-07-16T15:56:16.962Z,26.60
2017-07-16T15:58:44.435Z,26.60
2017-07-16T16:01:12.710Z,26.60
2017-07-16T16:03:40.956Z,26.60
2017-07-16T16:06:08.689Z,26.60
2017-07-16T16:08:36.181Z,26.70
2017-07-16T16:11:03.652Z,26.60
2017-07-16T16:13:31.214Z,26.60
2017-07-16T16:15:59.483Z,26.60
2017-07-16T16:18:27.822Z,26.60
2017-07-16T16:20:55.294Z,26.50
2017-07-16T16:23:23.032Z,26.50
2017-07-16T16:25:50.509Z,26.30
2017-07-16T16:28:17.994Z,26.20
2017-07-16T16:30:46.277Z,26.00
2017-07-16T16:33:14.515Z,26.00
2017-07-16T16:35:42.013Z,26.00
2017-07-16T16:38:10.275Z,26.10
2017-07-16T16:40:37.748Z,26.10
2017-07-16T16:43:06.018Z,26.20
2017-07-16T16:45:34.289Z,26.30
2017-07-16T16:48:02.573Z,26.20
2017-07-16T16:50:30.846Z,26.20
2017-07-16T16:52:59.105Z,26.30
2017-07-16T16:55:26.574Z,26.30
2017-07-16T16:57:54.830Z,26.10
2017-07-16T17:00:22.333Z,26.10
2017-07-16T17:02:49.829Z,26.00
2017-07-16T17:05:17.301Z,25.90
2017-07-16T17:07:44.793Z,25.90
2017-07-16T17:10:13.034Z,25.90
2017-07-16T17:12:40.509Z,25.90
2017-07-16T17:15:08.773Z,25.70
2017-07-16T17:17:36.257Z,25.70
2017-07-16T17:20:04.498Z,25.60
2017-07-16T17:22:31.988Z,25.60
2017-07-16T17:25:00.225Z,25.60
2017-07-16T17:27:27.697Z,25.60
2017-07-16T17:29:55.204Z,25.60
2017-07-16T17:32:22.682Z,25.50
2017-07-16T17:34:50.157Z,25.50
2017-07-16T17:37:17.658Z,25.40
2017-07-16T17:39:45.130Z,25.50
2017-07-16T17:42:12.603Z,25.30
2017-07-16T17:44:40.097Z,25.20
2017-07-16T17:47:07.574Z,25.00
2017-07-16T17:49:35.813Z,24.90
2017-07-16T17:52:03.304Z,24.90
2017-07-16T17:54:31.566Z,24.70
2017-07-16T17:56:59.049Z,24.80
2017-07-16T17:59:26.553Z,24.80
2017-07-16T18:01:54.030Z,24.80
2017-07-16T18:04:21.505Z,24.80
2017-07-16T18:06:49.117Z,24.80
2017-07-16T18:09:16.598Z,24.70
2017-07-16T18:11:44.070Z,24.70
2017-07-16T18:14:11.581Z,24.70
2017-07-16T18:16:39.056Z,24.70
2017-07-16T18:19:06.533Z,24.60
2017-07-16T18:21:34.030Z,24.60
2017-07-16T18:24:01.561Z,24.50
2017-07-16T18:26:29.038Z,24.40
2017-07-16T18:28:57.248Z,24.30
2017-07-16T18:31:24.728Z,24.20
2017-07-16T18:33:52.198Z,24.00
2017-07-16T18:36:19.698Z,23.90
2017-07-16T18:38:47.481Z,23.90
2017-07-16T18:41:14.957Z,23.80
2017-07-16T18:43:42.459Z,23.70
2017-07-16T18:46:11.083Z,23.50
2017-07-16T18:48:38.565Z,23.40
2017-07-16T18:51:06.073Z,23.40
2017-07-16T18:53:33.551Z,23.20
2017-07-16T18:56:01.025Z,23.10
2017-07-16T18:58:28.756Z,23.00
2017-07-16T19:00:56.241Z,22.90
2017-07-16T19:03:23.716Z,22.80
2017-07-16T19:05:51.218Z,22.70
2017-07-16T19:08:19.010Z,22.60
2017-07-16T19:10:46.489Z,22.50
2017-07-16T19:13:14.026Z,22.40
2017-07-16T19:15:41.534Z,22.30
2017-07-16T19:18:09.773Z,22.00
2017-07-16T19:20:37.274Z,22.00
2017-07-16T19:23:05.513Z,21.70
2017-07-16T19:25:33.249Z,21.70
2017-07-16T19:28:00.749Z,21.60
2017-07-16T19:30:28.221Z,21.50
2017-07-16T19:32:56.472Z,21.40
2017-07-16T19:35:23.972Z,21.40
2017-07-16T19:37:51.461Z,21.30
2017-07-16T19:40:18.968Z,21.30
2017-07-16T19:42:47.263Z,21.10
2017-07-16T19:45:14.742Z,21.10
2017-07-16T19:47:42.215Z,21.00
2017-07-16T19:50:09.718Z,20.80
2017-07-16T19:52:37.979Z,20.50
2017-07-16T19:55:05.449Z,20.50
2017-07-16T19:57:33.717Z,20.20
2017-07-16T20:00:01.957Z,20.10
2017-07-16T20:02:29.431Z,20.00
2017-07-16T20:04:56.998Z,20.00
2017-07-16T20:07:24.545Z,20.00
2017-07-16T20:09:52.010Z,19.90
2017-07-16T20:12:19.519Z,19.90
2017-07-16T20:14:47.002Z,19.90
2017-07-16T20:17:14.473Z,19.80
2017-07-16T20:19:41.973Z,19.80
2017-07-16T20:22:09.440Z,19.70
2017-07-16T20:24:36.925Z,19.60
2017-07-16T20:27:04.433Z,19.50
2017-07-16T20:29:32.725Z,19.40
2017-07-16T20:32:00.197Z,19.30
2017-07-16T20:34:27.709Z,19.10
2017-07-16T20:36:55.955Z,18.60
2017-07-16T20:39:23.434Z,18.60
2017-07-16T20:41:50.988Z,18.40
2017-07-16T20:44:18.461Z,18.40
2017-07-16T20:46:46.025Z,18.30
2017-07-16T20:49:14.281Z,18.30
2017-07-16T20:51:41.756Z,18.30
2017-07-16T20:54:10.001Z,18.40
2017-07-16T20:56:37.506Z,18.40
2017-07-16T20:59:04.982Z,18.40
2017-07-16T21:01:32.454Z,18.40
2017-07-16T21:03:59.950Z,18.40
2017-07-16T21:06:27.436Z,18.30
2017-07-16T21:08:54.910Z,18.20
2017-07-16T21:11:22.441Z,18.20
2017-07-16T21:13:50.681Z,18.20
2017-07-16T21:16:18.149Z,18.10
2017-07-16T21:18:45.686Z,18.20
2017-07-16T21:21:13.161Z,18.10
2017-07-16T21:23:40.638Z,18.10
2017-07-16T21:26:09.240Z,18.00
2017-07-16T21:28:37.601Z,18.00
2017-07-16T21:31:05.878Z,18.00
2017-07-16T21:33:33.437Z,17.90
2017-07-16T21:36:01.714Z,17.80
2017-07-16T21:38:29.954Z,17.70
2017-07-16T21:40:57.486Z,17.70
2017-07-16T21:43:24.963Z,17.70
2017-07-16T21:45:52.440Z,17.60
2017-07-16T21:48:19.934Z,17.60
2017-07-16T21:50:47.725Z,17.50
2017-07-16T21:53:15.239Z,17.50
2017-07-16T21:55:43.506Z,17.40
2017-07-16T21:58:10.976Z,17.40
2017-07-16T22:00:39.214Z,17.30
2017-07-16T22:03:06.705Z,17.30
2017-07-16T22:05:34.987Z,17.30
2017-07-16T22:08:03.225Z,17.30
2017-07-16T22:10:30.721Z,17.30
2017-07-16T22:12:58.965Z,17.30
2017-07-16T22:15:26.438Z,17.20
2017-07-16T22:17:53.933Z,17.20
2017-07-16T22:20:21.401Z,17.10
2017-07-16T22:22:48.872Z,17.10
2017-07-16T22:25:16.373Z,17.00
2017-07-16T22:27:44.826Z,16.80
2017-07-16T22:30:12.301Z,16.80
2017-07-16T22:32:39.870Z,16.70
2017-07-16T22:35:08.109Z,16.60
2017-07-16T22:37:35.581Z,16.50
2017-07-16T22:40:03.073Z,16.60
2017-07-16T22:42:31.305Z,16.70
2017-07-16T22:44:58.775Z,16.70
2017-07-16T22:47:26.504Z,16.70
2017-07-16T22:49:53.978Z,16.80
2017-07-16T22:52:21.721Z,16.70
2017-07-16T22:54:49.225Z,16.70
2017-07-16T22:57:16.700Z,16.60
2017-07-16T22:59:44.941Z,16.40
2017-07-16T23:02:12.442Z,16.40
2017-07-16T23:04:39.916Z,16.30
2017-07-16T23:07:07.386Z,16.30
2017-07-16T23:09:34.893Z,16.30
2017-07-16T23:12:03.135Z,16.40
2017-07-16T23:14:30.613Z,16.40
2017-07-16T23:16:58.106Z,16.40
2017-07-16T23:19:25.581Z,16.40
2017-07-16T23:21:53.053Z,16.40
2017-07-16T23:24:20.544Z,16.40
2017-07-16T23:26:48.021Z,16.30
2017-07-16T23:29:16.257Z,16.10
2017-07-16T23:31:43.766Z,16.10
2017-07-16T23:34:11.243Z,16.00
2017-07-16T23:36:39.014Z,15.90
2017-07-16T23:39:06.515Z,15.90
2017-07-16T23:41:33.985Z,15.80
2017-07-16T23:44:02.221Z,15.60
2017-07-16T23:46:29.716Z,15.50
2017-07-16T23:48:57.958Z,15.60
2017-07-16T23:51:25.698Z,15.60
2017-07-16T23:53:53.461Z,15.60
2017-07-16T23:56:20.934Z,15.60
2017-07-16T23:58:48.406Z,15.70
